Aérodrome :
LOGIN :

S'inscrire | Disclaimer

   EN    FR    IT 

 










Légende :    VFR   VFR Marginal   IFR   IFR Intensif   IFR Très Intensif
Visi : 
Plafond : 
>= 8 km
>= 3000ft
5 à 8 km
1000 à 3000 ft
1500m à 5 km
500 à 1000 ft
800 à 1500m
200 à 500 ft
< 800m
< 200 ft
Symboles :   Orages  Brouillard  Fortes neiges  Fortes précipitations  Vent > 20 kt
SIGMETs :   Divers  Orages  Givrage  Turbulence  Onde Orograph.  Cendres Volcan.






- Altitude de l'aérodrome : 1363 ft


ETIC - Grafenwohr Army Air Field

DERNIER METAR :
  • 181755Z AUTO 16005KT 9999 CLR 26/15 A2987 RMK AO2 SLP111 T02600151 10290 20260 $

METARs EXPIRÉS :
  • 181655Z AUTO 16007KT 9999 CLR 28/15 A2988 RMK AO2 SLP115 T02840149 $
  • 181555Z AUTO 16009G15KT 9999 CLR 29/15 A2989 RMK AO2 SLP119 T02860151 $
  • 181455Z AUTO 15008KT 9999 FEW170 28/14 A2991 RMK AO2 SLP136 T02730132 $
  • 181355Z 16003KT 9999 CLR 28/13 A2992 RMK AO2A SLP136 T02730132 $
  • 181255Z AUTO 14010KT 9999 FEW180 27/13 A2994 RMK AO2 SLP136 T02730132 $

TAF TAF ETIC
Valide du 18 à 18h jusqu'au 20 à 00h UTC


181800Z 1818/1924 VRB06KT 9999 FEW150 QNH2992INS
BECMG 1822/1823 VRB03KT 6000 BR SCT120 QNH2993INS
TEMPO 1900/1904 1200 BCFG
BECMG 1905/1906 29003KT 9999 NSW SCT060 BKN100 QNH2994INS
BECMG 1909/1910 26006KT 8000 -RA VCTS BKN035 BKN060 QNH2996INS
TEMPO 1910/1916 4800 TSRA OVC025
BECMG 1917/1918 02006KT 8000 -DZ BKN020 OVC050 QNH3006INS
BECMG 1918/1919 05006KT 9999 NSW BKN025 QNH3006INS TX26/1912Z TN15/1903Z LAST NO AMDS AFT 1821 NEXT 2005



MET'MAP, la Météo Aéronautique d'un coup d'oeil ! - Copyright ORBIFLY Décembre 2007 - Disclaimer

ORBIFLY MET'MAP TEAM :

Programmation & Développement : Alexandra Zaïnal
Sur une idée originale de : Baudouin d'Aumeries
Soutien technique & logistique : Manuel Goepfert
Assistance : Marc-Olivier Méhu




SOURCES & CREDITS :

   NOAA